Herent, Belgium
Current Conditions -  °F | °C
As of 7:20 PM on Tuesday 21 Oct 2014 (Local Time) from EBBR Reporting Station
Light Rain Light Rain  
Wind Chill: 39°   Ceiling: 4600
Heat Index: 46°   Visibility: 6mi
Dew Point: 39°   Wind: 22mph
Humidity: 76%   Direction: 270°W
Pressure: 29.77"   Gusts: NA
Location:  50.91°N, 4.67°E
Report Text: EBBR 211720Z 27019KT 9999 -RA FEW025CB BKN046 08/04 Q1008 RETS TEMPO 28018G35KT 3000 SHRA TSRAGS
Loading
Personal Weather Stations






























Interactive Weather Map
Tropical Storm Tracking
New forecast layout! Learn more

10-Day Weather Forecast

Advertisements
Track Severe Weather on mobile